セントジョンズ の空港の天気 - METARとTAF

セント・ジョンズ国際空港 ( CYYT / YYT ) - カナダ ニューファンドランド・ラブラドール州セントジョンズ
飛行場実況気象(Metar)
観測時間08/05 05:30 NDT (08/05 08:00 UTC)
風向・風速北北東 4m/s
視程10km以上
天気現象
全天を覆う雲 雲底高度 400m
気温11℃
湿度87%
気圧1019.1hPa
METARCYYT 050800Z 02007KT 15SM OVC013 11/09 A3009 RMK SC8 SLP191
過去の天気等 Google飛行場航空写真 Wunderground天気予報

過去48時間のMETAR

飛行場予報(TAF)
発表時間: 8/05 03:08 NDT (8/05 05:38 UTC)
予報対象時間: 5日3時 NDT ~ 6日3時 NDT
風向・風速北北東 5m/s 瞬間風速 10m/s
視程10km以上
全天を覆う雲 雲底高度 180m
5日3時 NDT ~ 5日8時 NDT に一時的に
全天を覆う雲 雲底高度 300m
5日8時 NDT から
風向・風速北 5m/s
視程10km以上
少しの雲 雲底高度 7320m
5日11時 NDT ~ 5日13時 NDT に徐々に
風向・風速不定 2m/s
5日17時 NDT ~ 5日19時 NDT に徐々に
風向・風速南南西 5m/s
5日23時 NDT から
風向・風速西南西 6m/s
視程10km以上
全天の8割程度の雲 雲底高度 7320m
TAF CYYT 050538Z 0506/0606 03010G20KT P6SM OVC006
TEMPO 0506/0511 OVC010
FM051100 01010KT P6SM FEW240
BECMG 0514/0516 VRB03KT
BECMG 0520/0522 21010KT
FM060200 25012KT P6SM BKN240 RMK NXT FCST BY 051200Z